Jacare, Brazil
Current Conditions -  °F | °C
As of 1:00 AM on Friday 28 Nov 2014 (Local Time) from SBMK Reporting Station
Clear Clear  
Wind Chill: 73°   Ceiling: Unl
Heat Index: 73°   Visibility: 6mi
Dew Point: 66°   Wind: 2mph
Humidity: 78%   Direction: NA
Pressure: 29.94"   Gusts: NA
Location:  16.47°S, 41.99°W
Report Text: SBMK 280300Z VRB02KT CAVOK 23/19 Q1014
Loading
Personal Weather Stations






























Interactive Weather Map New forecast layout! Learn more

10-Day Weather Forecast

Advertisements
Track Severe Weather on mobile